createdAt,value
2022-09-06T00:02:51.704Z,98638.25
2022-09-06T00:05:54.726Z,98635.88
2022-09-06T00:08:57.385Z,98627.78
2022-09-06T00:11:59.991Z,98624.94
2022-09-06T00:15:02.746Z,98628.50
2022-09-06T00:18:07.866Z,98626.97
2022-09-06T00:21:16.478Z,98622.25
2022-09-06T00:24:19.037Z,98630.34
2022-09-06T00:27:21.644Z,98625.53
2022-09-06T00:30:24.532Z,98627.47
2022-09-06T00:33:28.580Z,98628.50
2022-09-06T00:36:31.281Z,98631.47
2022-09-06T00:39:33.916Z,98624.66
2022-09-06T00:42:36.564Z,98616.34
2022-09-06T00:45:39.502Z,98624.44
2022-09-06T00:48:44.394Z,98614.53
2022-09-06T00:51:47.007Z,98618.50
2022-09-06T00:54:50.449Z,98619.75
2022-09-06T00:57:53.300Z,98624.59
2022-09-06T01:00:56.129Z,98631.72
2022-09-06T01:04:00.557Z,98633.19
2022-09-06T01:07:07.131Z,98630.16
2022-09-06T01:10:22.197Z,98631.72
2022-09-06T01:13:34.400Z,98628.78
2022-09-06T01:16:40.525Z,98632.50
2022-09-06T01:20:11.818Z,98629.22
2022-09-06T01:23:40.534Z,98632.69
2022-09-06T01:27:21.637Z,98644.16
2022-09-06T01:30:25.891Z,98653.38
2022-09-06T01:33:33.807Z,98657.56
2022-09-06T01:36:54.411Z,98656.31
2022-09-06T01:40:03.843Z,98655.78
2022-09-06T01:43:10.813Z,98654.09
2022-09-06T01:46:19.032Z,98658.03
2022-09-06T01:49:28.542Z,98661.97
2022-09-06T01:52:35.092Z,98661.97
2022-09-06T01:55:44.590Z,98663.06
2022-09-06T01:59:08.213Z,98666.13
2022-09-06T02:02:15.382Z,98661.47
2022-09-06T02:05:24.563Z,98661.22
2022-09-06T02:08:30.914Z,98666.44
2022-09-06T02:11:38.899Z,98666.06
2022-09-06T02:14:44.249Z,98662.16
2022-09-06T02:17:52.014Z,98672.41
2022-09-06T02:20:56.468Z,98726.28
2022-09-06T02:24:01.574Z,98759.63
2022-09-06T02:27:04.808Z,98761.66
2022-09-06T02:30:07.792Z,98748.34
2022-09-06T02:33:15.454Z,98745.22
2022-09-06T02:36:18.681Z,98743.31
2022-09-06T02:39:21.235Z,98743.53
2022-09-06T02:42:24.243Z,98742.03
2022-09-06T02:45:26.937Z,98736.59
2022-09-06T02:48:31.021Z,98739.00
2022-09-06T02:51:37.483Z,98734.28
2022-09-06T02:54:40.508Z,98727.56
2022-09-06T02:57:43.832Z,98747.84
2022-09-06T03:00:46.406Z,98744.75
2022-09-06T03:03:50.495Z,98737.59
2022-09-06T03:06:53.200Z,98697.53
2022-09-06T03:09:57.053Z,98695.19
2022-09-06T03:12:59.969Z,98688.06
2022-09-06T03:16:02.955Z,98695.78
2022-09-06T03:19:06.967Z,98686.69
2022-09-06T03:22:09.606Z,98672.59
2022-09-06T03:25:12.277Z,98667.03
2022-09-06T03:28:14.964Z,98659.75
2022-09-06T03:31:17.689Z,98677.31
2022-09-06T03:34:21.982Z,98694.09
2022-09-06T03:37:24.790Z,98693.69
2022-09-06T03:40:27.694Z,98687.66
2022-09-06T03:43:32.071Z,98680.97
2022-09-06T03:46:34.697Z,98684.03
2022-09-06T03:49:39.464Z,98685.84
2022-09-06T03:52:42.061Z,98692.44
2022-09-06T03:55:46.222Z,98689.59
2022-09-06T03:58:48.947Z,98697.28
2022-09-06T04:01:51.564Z,98690.38
2022-09-06T04:04:55.643Z,98693.72
2022-09-06T04:07:58.253Z,98687.06
2022-09-06T04:11:01.294Z,98693.72
2022-09-06T04:14:04.117Z,98692.09
2022-09-06T04:17:06.908Z,98686.78
2022-09-06T04:20:11.491Z,98689.81
2022-09-06T04:23:14.101Z,98684.25
2022-09-06T04:26:17.466Z,98683.50
2022-09-06T04:29:20.011Z,98681.81
2022-09-06T04:32:22.715Z,98688.88
2022-09-06T04:35:26.830Z,98687.84
2022-09-06T04:38:31.176Z,98690.25
2022-09-06T04:41:33.787Z,98699.91
2022-09-06T04:44:36.410Z,98695.94
2022-09-06T04:47:39.052Z,98696.41
2022-09-06T04:50:42.938Z,98694.19
2022-09-06T04:53:45.743Z,98689.91
2022-09-06T04:56:48.251Z,98700.66
2022-09-06T04:59:50.780Z,98700.81
2022-09-06T05:02:53.333Z,98699.69
2022-09-06T05:06:06.716Z,98683.72
2022-09-06T05:09:09.321Z,98698.09
2022-09-06T05:12:11.873Z,98705.56
2022-09-06T05:15:14.570Z,98708.28
2022-09-06T05:18:17.098Z,98715.63
2022-09-06T05:21:21.068Z,98717.91
2022-09-06T05:24:23.604Z,98720.47
2022-09-06T05:27:26.475Z,98727.34
2022-09-06T05:30:29.095Z,98715.63
2022-09-06T05:33:31.705Z,98726.13
2022-09-06T05:36:35.624Z,98722.44
2022-09-06T05:39:38.274Z,98727.78
2022-09-06T05:42:41.308Z,98731.22
2022-09-06T05:45:43.924Z,98735.75
2022-09-06T05:48:53.110Z,98732.75
2022-09-06T05:51:57.032Z,98733.59
2022-09-06T05:54:59.656Z,98733.88
2022-09-06T05:58:02.212Z,98724.53
2022-09-06T06:01:09.816Z,98728.88
2022-09-06T06:04:12.457Z,98720.75
2022-09-06T06:07:16.494Z,98731.31
2022-09-06T06:10:19.079Z,98735.44
2022-09-06T06:13:21.632Z,98739.03
2022-09-06T06:16:24.957Z,98743.53
2022-09-06T06:19:27.741Z,98738.59
2022-09-06T06:22:31.615Z,98740.00
2022-09-06T06:25:34.183Z,98748.13
2022-09-06T06:28:37.438Z,98738.66
2022-09-06T06:31:40.159Z,98729.28
2022-09-06T06:34:42.699Z,98734.84
2022-09-06T06:37:46.715Z,98726.34
2022-09-06T06:40:49.246Z,98728.84
2022-09-06T06:43:55.780Z,98746.41
2022-09-06T06:47:01.882Z,98754.63
2022-09-06T06:50:05.154Z,98756.50
2022-09-06T06:53:08.908Z,98751.25
2022-09-06T06:56:15.141Z,98754.75
2022-09-06T06:59:18.076Z,98754.59
2022-09-06T07:02:20.756Z,98746.22
2022-09-06T07:08:48.171Z,98742.88
2022-09-06T07:11:51.121Z,98734.97
2022-09-06T07:14:53.782Z,98731.38
2022-09-06T07:17:56.726Z,98734.53
2022-09-06T07:24:23.522Z,98729.66
2022-09-06T07:30:48.764Z,98727.75
2022-09-06T07:33:55.200Z,98734.50
2022-09-06T07:36:59.245Z,98733.91
2022-09-06T07:40:03.734Z,98735.03
2022-09-06T07:43:06.332Z,98742.28
2022-09-06T07:46:10.874Z,98734.38
2022-09-06T07:49:13.407Z,98737.91
2022-09-06T07:55:41.082Z,98730.22
2022-09-06T07:58:43.622Z,98727.44
2022-09-06T08:01:47.513Z,98723.84
2022-09-06T08:04:51.717Z,98712.28
2022-09-06T08:11:18.919Z,98708.66
2022-09-06T08:14:21.522Z,98710.25
2022-09-06T08:17:25.734Z,98714.59
2022-09-06T08:20:28.324Z,98710.56
2022-09-06T08:23:30.950Z,98707.63
2022-09-06T08:26:36.362Z,98718.66
2022-09-06T08:29:39.885Z,98717.97
2022-09-06T08:32:42.932Z,98718.66
2022-09-06T08:35:46.973Z,98712.47
2022-09-06T08:38:49.634Z,98715.03
2022-09-06T08:41:56.902Z,98716.91
2022-09-06T08:45:00.502Z,98715.16
2022-09-06T08:48:03.461Z,98705.84
2022-09-06T08:51:38.615Z,98706.88
2022-09-06T08:54:43.306Z,98705.22
2022-09-06T08:57:57.503Z,98701.91
2022-09-06T09:01:03.188Z,98694.56
2022-09-06T09:04:07.255Z,98685.66
2022-09-06T09:07:26.199Z,98684.16
2022-09-06T09:10:30.043Z,98691.78
2022-09-06T09:13:36.995Z,98687.88
2022-09-06T09:16:39.731Z,98691.84
2022-09-06T09:19:42.234Z,98692.75
2022-09-06T09:22:45.508Z,98674.97
2022-09-06T09:25:49.259Z,98693.88
2022-09-06T09:29:07.335Z,98684.44
2022-09-06T09:32:09.930Z,98685.28
2022-09-06T09:35:19.745Z,98684.00
2022-09-06T09:38:24.792Z,98677.38
2022-09-06T09:41:31.222Z,98680.78
2022-09-06T09:44:35.203Z,98677.34
2022-09-06T09:47:37.842Z,98680.31
2022-09-06T09:50:40.355Z,98681.91
2022-09-06T09:53:51.060Z,98672.38
2022-09-06T09:56:54.040Z,98678.59
2022-09-06T10:00:01.113Z,98677.59
2022-09-06T10:03:12.861Z,98677.28
2022-09-06T10:09:41.110Z,98661.22
2022-09-06T10:12:43.999Z,98657.94
2022-09-06T10:15:49.275Z,98657.56
2022-09-06T10:18:52.798Z,98656.84
2022-09-06T10:21:59.929Z,98645.69
2022-09-06T10:25:19.082Z,98649.47
2022-09-06T10:28:32.617Z,98651.84
2022-09-06T10:31:52.839Z,98643.06
2022-09-06T10:35:10.996Z,98640.63
2022-09-06T10:38:25.623Z,98634.97
2022-09-06T10:41:35.934Z,98645.50
2022-09-06T10:44:49.936Z,98642.13
2022-09-06T10:48:04.792Z,98635.34
2022-09-06T10:51:11.089Z,98629.28
2022-09-06T10:54:14.813Z,98634.91
2022-09-06T11:00:46.760Z,98624.13
2022-09-06T11:07:03.319Z,98615.41
2022-09-06T11:10:11.503Z,98610.06
2022-09-06T11:13:17.208Z,98610.72
2022-09-06T11:16:23.307Z,98605.34
2022-09-06T11:19:32.443Z,98613.72
2022-09-06T11:22:47.039Z,98613.41
2022-09-06T11:26:04.088Z,98608.47
2022-09-06T11:29:09.105Z,98616.69
2022-09-06T11:32:30.349Z,98610.88
2022-09-06T11:35:34.905Z,98607.00
2022-09-06T11:38:37.499Z,98607.63
2022-09-06T11:41:41.774Z,98604.81
2022-09-06T11:44:55.862Z,98611.13
2022-09-06T11:48:34.251Z,98601.56
2022-09-06T11:51:39.748Z,98600.13
2022-09-06T11:54:44.510Z,98606.91
2022-09-06T11:57:48.229Z,98595.47
2022-09-06T12:01:24.302Z,98593.09
2022-09-06T12:05:07.340Z,98583.78
2022-09-06T12:08:31.143Z,98589.97
2022-09-06T12:11:37.204Z,98577.34
2022-09-06T12:14:41.567Z,98574.06
2022-09-06T12:17:48.577Z,98577.41
2022-09-06T12:21:04.290Z,98584.84
2022-09-06T12:24:09.158Z,98584.56
2022-09-06T12:27:15.660Z,98582.38
2022-09-06T12:30:33.313Z,98584.50
2022-09-06T12:33:38.748Z,98588.59
2022-09-06T12:36:54.787Z,98576.69
2022-09-06T12:39:59.786Z,98583.72
2022-09-06T12:43:04.611Z,98590.09
2022-09-06T12:46:08.111Z,98596.72
2022-09-06T12:49:12.231Z,98584.28
2022-09-06T12:52:16.968Z,98573.81
2022-09-06T12:55:23.829Z,98583.78
2022-09-06T12:58:29.379Z,98578.44
2022-09-06T13:01:34.459Z,98569.81
2022-09-06T13:04:41.151Z,98580.56
2022-09-06T13:07:45.982Z,98583.75
2022-09-06T13:10:49.958Z,98590.31
2022-09-06T13:13:54.143Z,98590.09
2022-09-06T13:16:57.723Z,98584.56
2022-09-06T13:20:11.932Z,98581.69
2022-09-06T13:23:21.884Z,98586.78
2022-09-06T13:26:43.806Z,98583.94
2022-09-06T13:29:55.798Z,98590.22
2022-09-06T13:32:58.414Z,98585.94
2022-09-06T13:36:08.618Z,98581.47
2022-09-06T13:39:12.431Z,98574.44
2022-09-06T13:42:30.504Z,98569.16
2022-09-06T13:45:33.733Z,98562.53
2022-09-06T13:48:36.911Z,98552.53
2022-09-06T13:51:40.478Z,98545.19
2022-09-06T13:54:43.048Z,98539.75
2022-09-06T13:57:46.920Z,98538.78
2022-09-06T14:00:49.544Z,98537.38
2022-09-06T14:03:52.349Z,98524.84
2022-09-06T14:06:55.205Z,98528.44
2022-09-06T14:09:57.780Z,98520.91
2022-09-06T14:13:01.596Z,98516.72
2022-09-06T14:16:05.335Z,98516.66
2022-09-06T14:19:07.980Z,98503.88
2022-09-06T14:22:10.524Z,98503.69
2022-09-06T14:25:13.231Z,98507.63
2022-09-06T14:28:17.505Z,98516.53
2022-09-06T14:31:21.583Z,98519.84
2022-09-06T14:34:25.668Z,98528.63
2022-09-06T14:37:28.197Z,98529.44
2022-09-06T14:40:30.812Z,98526.13
2022-09-06T14:43:35.369Z,98536.69
2022-09-06T14:46:38.060Z,98542.53
2022-09-06T14:49:40.566Z,98543.50
2022-09-06T14:52:43.093Z,98546.16
2022-09-06T14:55:45.699Z,98537.13
2022-09-06T14:58:49.886Z,98546.91
2022-09-06T15:01:52.545Z,98537.91
2022-09-06T15:04:55.310Z,98540.75
2022-09-06T15:07:57.889Z,98535.31
2022-09-06T15:11:01.053Z,98527.84
2022-09-06T15:14:07.900Z,98531.91
2022-09-06T15:17:11.182Z,98533.28
2022-09-06T15:20:13.760Z,98525.06
2022-09-06T15:23:24.872Z,98510.22
2022-09-06T15:26:28.223Z,98508.00
2022-09-06T15:29:32.167Z,98499.34
2022-09-06T15:32:34.668Z,98501.44
2022-09-06T15:35:37.916Z,98496.94
2022-09-06T15:38:42.502Z,98482.00
2022-09-06T15:41:45.541Z,98470.50
2022-09-06T15:44:49.434Z,98458.31
2022-09-06T15:47:52.038Z,98441.69
2022-09-06T15:50:54.549Z,98439.22
2022-09-06T15:53:57.096Z,98442.16
2022-09-06T15:56:59.643Z,98445.59
2022-09-06T16:00:04.517Z,98436.53
2022-09-06T16:03:07.135Z,98445.69
2022-09-06T16:06:27.891Z,98437.91
2022-09-06T16:09:31.823Z,98443.19
2022-09-06T16:12:34.834Z,98434.88
2022-09-06T16:15:38.792Z,98428.00
2022-09-06T16:18:43.022Z,98426.22
2022-09-06T16:21:45.956Z,98430.44
2022-09-06T16:24:48.590Z,98417.38
2022-09-06T16:27:51.597Z,98419.69
2022-09-06T16:30:55.754Z,98412.41
2022-09-06T16:33:58.747Z,98421.00
2022-09-06T16:37:07.635Z,98417.19
2022-09-06T16:40:11.193Z,98425.84
2022-09-06T16:43:14.082Z,98417.28
2022-09-06T16:46:18.289Z,98414.63
2022-09-06T16:49:21.145Z,98416.41
2022-09-06T16:52:23.785Z,98416.28
2022-09-06T16:55:26.622Z,98408.75
2022-09-06T16:58:30.181Z,98407.06
2022-09-06T17:01:35.787Z,98411.81
2022-09-06T17:04:38.375Z,98408.19
2022-09-06T17:07:40.906Z,98407.28
2022-09-06T17:10:44.008Z,98411.31
2022-09-06T17:13:48.667Z,98401.28
2022-09-06T17:17:09.591Z,98410.38
2022-09-06T17:20:12.359Z,98405.31
2022-09-06T17:23:19.149Z,98396.97
2022-09-06T17:26:23.302Z,98404.22
2022-09-06T17:29:28.082Z,98400.97
2022-09-06T17:32:32.738Z,98397.44
2022-09-06T17:35:35.313Z,98402.25
2022-09-06T17:38:37.945Z,98390.22
2022-09-06T17:41:42.097Z,98391.69
2022-09-06T17:44:45.577Z,98393.53
2022-09-06T17:47:49.623Z,98387.09
2022-09-06T17:50:53.181Z,98386.50
2022-09-06T17:53:56.524Z,98392.22
2022-09-06T17:56:59.017Z,98382.06
2022-09-06T18:00:02.214Z,98378.59
2022-09-06T18:03:06.198Z,98380.66
2022-09-06T18:06:10.459Z,98381.19
2022-09-06T18:09:15.897Z,98384.41
2022-09-06T18:12:19.568Z,98388.88
2022-09-06T18:15:22.115Z,98392.50
2022-09-06T18:18:25.992Z,98380.25
2022-09-06T18:21:30.967Z,98391.41
2022-09-06T18:24:33.684Z,98387.03
2022-09-06T18:27:36.307Z,98391.81
2022-09-06T18:30:38.876Z,98386.63
2022-09-06T18:33:43.283Z,98389.44
2022-09-06T18:36:45.888Z,98399.34
2022-09-06T18:39:48.871Z,98392.63
2022-09-06T18:42:51.518Z,98406.91
2022-09-06T18:45:54.208Z,98398.97
2022-09-06T18:48:58.284Z,98410.06
2022-09-06T18:52:01.314Z,98398.97
2022-09-06T18:55:03.785Z,98404.94
2022-09-06T18:58:06.373Z,98412.47
2022-09-06T19:01:11.641Z,98422.41
2022-09-06T19:04:15.740Z,98417.66
2022-09-06T19:07:18.285Z,98421.63
2022-09-06T19:10:20.851Z,98417.25
2022-09-06T19:13:23.793Z,98416.84
2022-09-06T19:16:27.545Z,98411.28
2022-09-06T19:19:31.587Z,98410.13
2022-09-06T19:22:34.180Z,98415.28
2022-09-06T19:25:36.739Z,98407.75
2022-09-06T19:28:39.471Z,98408.91
2022-09-06T19:31:42.529Z,98405.75
2022-09-06T19:34:46.328Z,98398.63
2022-09-06T19:37:49.075Z,98403.38
2022-09-06T19:40:51.641Z,98412.91
2022-09-06T19:43:55.637Z,98410.09
2022-09-06T19:46:59.886Z,98420.00
2022-09-06T19:50:03.798Z,98417.25
2022-09-06T19:53:07.381Z,98405.34
2022-09-06T19:56:10.876Z,98406.56
2022-09-06T19:59:14.517Z,98403.38
2022-09-06T20:02:17.208Z,98406.56
2022-09-06T20:05:21.169Z,98411.28
2022-09-06T20:08:23.737Z,98408.09
2022-09-06T20:11:28.434Z,98402.50
2022-09-06T20:14:31.225Z,98396.53
2022-09-06T20:17:34.635Z,98391.75
2022-09-06T20:20:38.903Z,98390.97
2022-09-06T20:23:42.180Z,98385.84
2022-09-06T20:26:44.892Z,98387.47
2022-09-06T20:29:47.748Z,98375.53
2022-09-06T20:32:50.270Z,98378.72
2022-09-06T20:35:58.117Z,98379.53
2022-09-06T20:39:00.739Z,98374.78
2022-09-06T20:42:03.248Z,98366.06
2022-09-06T20:45:07.000Z,98383.13
2022-09-06T20:48:10.854Z,98383.56
2022-09-06T20:51:15.919Z,98391.47
2022-09-06T20:54:18.633Z,98392.66
2022-09-06T20:57:21.173Z,98380.78
2022-09-06T21:00:23.746Z,98387.53
2022-09-06T21:03:27.726Z,98394.25
2022-09-06T21:06:34.458Z,98399.41
2022-09-06T21:09:37.132Z,98406.94
2022-09-06T21:12:39.656Z,98412.03
2022-09-06T21:15:42.496Z,98406.06
2022-09-06T21:18:45.054Z,98415.16
2022-09-06T21:21:49.024Z,98417.09
2022-09-06T21:24:51.692Z,98409.19
2022-09-06T21:27:55.940Z,98412.75
2022-09-06T21:31:02.833Z,98419.06
2022-09-06T21:34:06.917Z,98417.91
2022-09-06T21:37:10.759Z,98416.69
2022-09-06T21:40:13.387Z,98412.69
2022-09-06T21:43:15.996Z,98411.03
2022-09-06T21:46:20.024Z,98407.91
2022-09-06T21:49:22.621Z,98408.56
2022-09-06T21:52:26.662Z,98395.09
2022-09-06T21:55:29.365Z,98393.09
2022-09-06T21:58:32.603Z,98403.41
2022-09-06T22:01:36.770Z,98402.94
2022-09-06T22:04:39.321Z,98395.78
2022-09-06T22:07:43.236Z,98392.63
2022-09-06T22:10:45.863Z,98404.09
2022-09-06T22:13:48.945Z,98406.00
2022-09-06T22:16:51.990Z,98407.50
2022-09-06T22:19:54.720Z,98394.81
2022-09-06T22:22:58.612Z,98396.34
2022-09-06T22:26:03.455Z,98405.41
2022-09-06T22:29:08.183Z,98410.59
2022-09-06T22:32:10.792Z,98413.75
2022-09-06T22:35:13.355Z,98410.63
2022-09-06T22:38:17.323Z,98401.88
2022-09-06T22:41:19.926Z,98401.00
2022-09-06T22:44:22.533Z,98400.22
2022-09-06T22:47:25.439Z,98396.25
2022-09-06T22:50:28.141Z,98392.28
2022-09-06T22:53:32.563Z,98388.63
2022-09-06T22:56:35.700Z,98401.75
2022-09-06T22:59:38.301Z,98393.88
2022-09-06T23:02:41.029Z,98393.53
2022-09-06T23:05:43.631Z,98388.03
2022-09-06T23:08:47.563Z,98388.03
2022-09-06T23:11:50.065Z,98381.75
2022-09-06T23:14:52.744Z,98383.72
2022-09-06T23:17:55.257Z,98370.69
2022-09-06T23:20:57.912Z,98370.28
2022-09-06T23:24:01.934Z,98369.84
2022-09-06T23:27:05.657Z,98368.19
2022-09-06T23:30:12.109Z,98367.75
2022-09-06T23:33:14.708Z,98367.72
2022-09-06T23:36:17.264Z,98363.00
2022-09-06T23:39:21.229Z,98367.66
2022-09-06T23:42:24.556Z,98368.47
2022-09-06T23:45:27.286Z,98360.50
2022-09-06T23:48:30.324Z,98356.53
2022-09-06T23:51:33.031Z,98350.34
2022-09-06T23:54:37.250Z,98351.22
2022-09-06T23:57:39.784Z,98348.13
